ADO35 RJCO-RJTT
Flight info
| Callsign | ADO35 |
|---|---|
| Flight time | 1h 21m |
| Altitude | 40000 |
| Route | BANKE1 MOIWA V2 HWE V31 MRE V13 YACHI Y113 YTE Y32 RUBIS Y10 GODIN GODIN1D |
| Aircraft | B737/M-SDE2E3FGHIRWXY/LB1 |
Departure
| Time | 2026-04-26 05:05 |
|---|---|
| Airport | Sapporo Okadama Airport (RJCO) |
Arrival
| Time | 2026-04-26 06:27 |
|---|---|
| Airport | Tokyo Haneda International Airport (RJTT) |
| Time | Latitude | Longitude | Altitude | Speed | Heading |
|---|---|---|---|---|---|
| 2026-04-26 04:43 | 43.11070 | 141.38343 | 31 ft | 0 kts | 223° |
| 2026-04-26 05:00 | 43.11065 | 141.38336 | 30 ft | 5 kts | 223° |
| 2026-04-26 05:00 | 43.11066 | 141.38318 | 31 ft | 1 kts | 332° |
| 2026-04-26 05:00 | 43.11083 | 141.38338 | 29 ft | 7 kts | 53° |
| 2026-04-26 05:00 | 43.11141 | 141.38336 | 30 ft | 14 kts | 322° |
| 2026-04-26 05:01 | 43.11236 | 141.38208 | 30 ft | 24 kts | 315° |
| 2026-04-26 05:01 | 43.11369 | 141.38026 | 31 ft | 28 kts | 312° |
| 2026-04-26 05:01 | 43.11506 | 141.37863 | 31 ft | 25 kts | 334° |
| 2026-04-26 05:01 | 43.11668 | 141.37793 | 29 ft | 24 kts | 343° |
| 2026-04-26 05:02 | 43.11821 | 141.37732 | 31 ft | 23 kts | 343° |
| 2026-04-26 05:02 | 43.11968 | 141.37674 | 31 ft | 22 kts | 345° |
| 2026-04-26 05:02 | 43.12106 | 141.37630 | 33 ft | 17 kts | 315° |
| 2026-04-26 05:02 | 43.12171 | 141.37513 | 31 ft | 8 kts | 296° |
| 2026-04-26 05:03 | 43.12181 | 141.37497 | 33 ft | 0 kts | 314° |
| 2026-04-26 05:03 | 43.12185 | 141.37496 | 33 ft | 1 kts | 350° |
| 2026-04-26 05:04 | 43.12187 | 141.37506 | 32 ft | 1 kts | 97° |
| 2026-04-26 05:04 | 43.12173 | 141.37538 | 32 ft | 6 kts | 132° |
| 2026-04-26 05:04 | 43.12172 | 141.37539 | 32 ft | 0 kts | 132° |
| 2026-04-26 05:04 | 43.11914 | 141.37893 | 32 ft | 104 kts | 134° |
| 2026-04-26 05:05 | 43.11273 | 141.38793 | 596 ft | 138 kts | 132° |
| 2026-04-26 05:05 | 43.10782 | 141.39868 | 1846 ft | 136 kts | 121° |
| 2026-04-26 05:05 | 43.10528 | 141.41293 | 2423 ft | 184 kts | 92° |
| 2026-04-26 05:05 | 43.11146 | 141.43066 | 2760 ft | 232 kts | 38° |
| 2026-04-26 05:06 | 43.12679 | 141.43755 | 3357 ft | 236 kts | 352° |
| 2026-04-26 05:06 | 43.14123 | 141.43036 | 3931 ft | 220 kts | 311° |
| 2026-04-26 05:06 | 43.15243 | 141.41515 | 4610 ft | 239 kts | 309° |
| 2026-04-26 05:06 | 43.16538 | 141.39911 | 5249 ft | 259 kts | 313° |
| 2026-04-26 05:07 | 43.17926 | 141.38349 | 5843 ft | 264 kts | 313° |
| 2026-04-26 05:07 | 43.19075 | 141.36433 | 6627 ft | 254 kts | 289° |
| 2026-04-26 05:07 | 43.19480 | 141.34173 | 7693 ft | 246 kts | 268° |
| 2026-04-26 05:07 | 43.19243 | 141.31867 | 8761 ft | 246 kts | 250° |
| 2026-04-26 05:08 | 43.18430 | 141.29778 | 9773 ft | 252 kts | 238° |
| 2026-04-26 05:08 | 43.17420 | 141.27782 | 10704 ft | 257 kts | 237° |
| 2026-04-26 05:08 | 43.16249 | 141.25829 | 11299 ft | 280 kts | 224° |
| 2026-04-26 05:08 | 43.14441 | 141.24454 | 11519 ft | 319 kts | 202° |
| 2026-04-26 05:09 | 43.12103 | 141.24188 | 11732 ft | 359 kts | 179° |
| 2026-04-26 05:09 | 43.09549 | 141.24772 | 12050 ft | 382 kts | 174° |
| 2026-04-26 05:09 | 43.06942 | 141.25452 | 12721 ft | 389 kts | 174° |
| 2026-04-26 05:09 | 43.04267 | 141.25768 | 13535 ft | 384 kts | 190° |
| 2026-04-26 05:10 | 43.01679 | 141.25000 | 14381 ft | 381 kts | 199° |
| 2026-04-26 05:10 | 42.99110 | 141.24054 | 15186 ft | 383 kts | 199° |
| 2026-04-26 05:10 | 42.96518 | 141.23131 | 15954 ft | 387 kts | 198° |
| 2026-04-26 05:10 | 42.93891 | 141.22227 | 16691 ft | 391 kts | 198° |
| 2026-04-26 05:11 | 42.91241 | 141.21331 | 17400 ft | 394 kts | 197° |
| 2026-04-26 05:11 | 42.88557 | 141.20428 | 18083 ft | 398 kts | 197° |
| 2026-04-26 05:11 | 42.85889 | 141.19533 | 18738 ft | 400 kts | 197° |
| 2026-04-26 05:11 | 42.83169 | 141.18621 | 19355 ft | 403 kts | 197° |
| 2026-04-26 05:12 | 42.80435 | 141.17704 | 19932 ft | 407 kts | 198° |
| 2026-04-26 05:12 | 42.77666 | 141.16775 | 20480 ft | 411 kts | 198° |
| 2026-04-26 05:12 | 42.74872 | 141.15837 | 21019 ft | 415 kts | 198° |
| 2026-04-26 05:12 | 42.72055 | 141.14894 | 21563 ft | 418 kts | 198° |
| 2026-04-26 05:13 | 42.69215 | 141.13943 | 22092 ft | 421 kts | 198° |
| 2026-04-26 05:13 | 42.66355 | 141.12987 | 22612 ft | 425 kts | 198° |
| 2026-04-26 05:13 | 42.63477 | 141.12026 | 23116 ft | 428 kts | 198° |
| 2026-04-26 05:13 | 42.60574 | 141.11057 | 23582 ft | 432 kts | 198° |
| 2026-04-26 05:14 | 42.57641 | 141.10078 | 23978 ft | 435 kts | 198° |
| 2026-04-26 05:14 | 42.54699 | 141.09099 | 24414 ft | 436 kts | 198° |
| 2026-04-26 05:14 | 42.51743 | 141.08081 | 24814 ft | 438 kts | 199° |
| 2026-04-26 05:14 | 42.48825 | 141.07037 | 25199 ft | 441 kts | 199° |
| 2026-04-26 05:15 | 42.45836 | 141.06042 | 25564 ft | 444 kts | 198° |
| 2026-04-26 05:15 | 42.42820 | 141.05093 | 25926 ft | 446 kts | 197° |
| 2026-04-26 05:15 | 42.39792 | 141.04147 | 26314 ft | 447 kts | 198° |
| 2026-04-26 05:15 | 42.36779 | 141.03194 | 26923 ft | 443 kts | 198° |
| 2026-04-26 05:16 | 42.33789 | 141.02239 | 27556 ft | 439 kts | 198° |
| 2026-04-26 05:16 | 42.30836 | 141.01243 | 28120 ft | 437 kts | 199° |
| 2026-04-26 05:16 | 42.27890 | 141.00206 | 28653 ft | 436 kts | 199° |
| 2026-04-26 05:16 | 42.24961 | 140.99166 | 29199 ft | 434 kts | 199° |
| 2026-04-26 05:17 | 42.22047 | 140.98142 | 29810 ft | 432 kts | 199° |
| 2026-04-26 05:17 | 42.19150 | 140.97134 | 30369 ft | 429 kts | 199° |
| 2026-04-26 05:17 | 42.16254 | 140.96135 | 30821 ft | 429 kts | 199° |
| 2026-04-26 05:17 | 42.13362 | 140.95157 | 31233 ft | 428 kts | 199° |
| 2026-04-26 05:18 | 42.10468 | 140.94185 | 31665 ft | 427 kts | 199° |
| 2026-04-26 05:18 | 42.07586 | 140.93216 | 32094 ft | 426 kts | 199° |
| 2026-04-26 05:18 | 42.04712 | 140.92248 | 32488 ft | 426 kts | 199° |
| 2026-04-26 05:18 | 42.01836 | 140.91280 | 32880 ft | 426 kts | 199° |
| 2026-04-26 05:19 | 41.98958 | 140.90323 | 33293 ft | 425 kts | 199° |
| 2026-04-26 05:19 | 41.96127 | 140.89389 | 33670 ft | 424 kts | 199° |
| 2026-04-26 05:19 | 41.93252 | 140.88442 | 34027 ft | 424 kts | 199° |
| 2026-04-26 05:19 | 41.90390 | 140.87498 | 34348 ft | 423 kts | 199° |
| 2026-04-26 05:20 | 41.87531 | 140.86553 | 34689 ft | 422 kts | 200° |
| 2026-04-26 05:20 | 41.84681 | 140.85609 | 35012 ft | 421 kts | 200° |
| 2026-04-26 05:20 | 41.81834 | 140.84666 | 35306 ft | 421 kts | 200° |
| 2026-04-26 05:20 | 41.78991 | 140.83727 | 35603 ft | 421 kts | 200° |
| 2026-04-26 05:21 | 41.76099 | 140.82960 | 35885 ft | 426 kts | 193° |
| 2026-04-26 05:21 | 41.73141 | 140.82572 | 36178 ft | 427 kts | 192° |
| 2026-04-26 05:21 | 41.71178 | 140.82346 | 36362 ft | 427 kts | 192° |
| 2026-04-26 05:21 | 41.67214 | 140.81900 | 36710 ft | 427 kts | 192° |
| 2026-04-26 05:22 | 41.65253 | 140.81675 | 36891 ft | 427 kts | 192° |
| 2026-04-26 05:22 | 41.62293 | 140.81326 | 37159 ft | 426 kts | 192° |
| 2026-04-26 05:22 | 41.58385 | 140.80850 | 37524 ft | 425 kts | 192° |
| 2026-04-26 05:22 | 41.56392 | 140.80605 | 37706 ft | 425 kts | 193° |
| 2026-04-26 05:23 | 41.52487 | 140.80122 | 38083 ft | 424 kts | 193° |
| 2026-04-26 05:23 | 41.50534 | 140.79881 | 38250 ft | 423 kts | 193° |
| 2026-04-26 05:23 | 41.47596 | 140.79518 | 38503 ft | 423 kts | 193° |
| 2026-04-26 05:23 | 41.44670 | 140.79159 | 38756 ft | 422 kts | 193° |
| 2026-04-26 05:24 | 41.41748 | 140.78798 | 38955 ft | 421 kts | 193° |
| 2026-04-26 05:24 | 41.38828 | 140.78436 | 39133 ft | 421 kts | 193° |
| 2026-04-26 05:24 | 41.35904 | 140.78072 | 39308 ft | 421 kts | 193° |
| 2026-04-26 05:24 | 41.32996 | 140.77710 | 39500 ft | 420 kts | 193° |
| 2026-04-26 05:25 | 41.30083 | 140.77349 | 39683 ft | 419 kts | 193° |
| 2026-04-26 05:25 | 41.27170 | 140.76987 | 39849 ft | 419 kts | 193° |
| 2026-04-26 05:25 | 41.24269 | 140.76628 | 39990 ft | 418 kts | 193° |
| 2026-04-26 05:25 | 41.21374 | 140.76270 | 40033 ft | 417 kts | 194° |
| 2026-04-26 05:26 | 41.15627 | 140.75559 | 40056 ft | 418 kts | 194° |
| 2026-04-26 05:26 | 41.09804 | 140.74841 | 40054 ft | 420 kts | 193° |
| 2026-04-26 05:27 | 41.03959 | 140.74139 | 40042 ft | 422 kts | 193° |
| 2026-04-26 05:27 | 40.98144 | 140.73440 | 40026 ft | 422 kts | 194° |
| 2026-04-26 05:28 | 40.92298 | 140.72730 | 40029 ft | 421 kts | 194° |
| 2026-04-26 05:28 | 40.86469 | 140.72023 | 40016 ft | 420 kts | 194° |
| 2026-04-26 05:29 | 40.80660 | 140.71319 | 40018 ft | 418 kts | 194° |
| 2026-04-26 05:29 | 40.74871 | 140.70619 | 40011 ft | 416 kts | 194° |
| 2026-04-26 05:30 | 40.69122 | 140.69831 | 40018 ft | 413 kts | 195° |
| 2026-04-26 05:30 | 40.63455 | 140.68960 | 40021 ft | 412 kts | 195° |
| 2026-04-26 05:31 | 40.57758 | 140.68100 | 40030 ft | 412 kts | 195° |
| 2026-04-26 05:31 | 40.52068 | 140.67255 | 40027 ft | 411 kts | 195° |
| 2026-04-26 05:32 | 40.46389 | 140.66410 | 40039 ft | 410 kts | 195° |
| 2026-04-26 05:32 | 40.40721 | 140.65548 | 40036 ft | 409 kts | 196° |
| 2026-04-26 05:33 | 40.35074 | 140.64690 | 40030 ft | 408 kts | 196° |
| 2026-04-26 05:33 | 40.29477 | 140.63843 | 40030 ft | 407 kts | 196° |
| 2026-04-26 05:34 | 40.23817 | 140.63009 | 40035 ft | 406 kts | 196° |
| 2026-04-26 05:34 | 40.18235 | 140.62203 | 40034 ft | 406 kts | 196° |
| 2026-04-26 05:35 | 40.12613 | 140.61391 | 40027 ft | 406 kts | 196° |
| 2026-04-26 05:35 | 40.07000 | 140.60578 | 40041 ft | 404 kts | 196° |
| 2026-04-26 05:36 | 40.01406 | 140.59769 | 40040 ft | 404 kts | 196° |
| 2026-04-26 05:36 | 39.95826 | 140.58963 | 40034 ft | 403 kts | 197° |
| 2026-04-26 05:37 | 39.90284 | 140.58154 | 40048 ft | 403 kts | 197° |
| 2026-04-26 05:37 | 39.84709 | 140.57335 | 40047 ft | 403 kts | 197° |
| 2026-04-26 05:38 | 39.79136 | 140.56520 | 40050 ft | 402 kts | 197° |
| 2026-04-26 05:38 | 39.73552 | 140.55704 | 40048 ft | 403 kts | 197° |
| 2026-04-26 05:39 | 39.67978 | 140.54887 | 40041 ft | 403 kts | 197° |
| 2026-04-26 05:39 | 39.62411 | 140.54050 | 40045 ft | 402 kts | 197° |
| 2026-04-26 05:40 | 39.56858 | 140.53213 | 40047 ft | 402 kts | 198° |
| 2026-04-26 05:40 | 39.51340 | 140.52383 | 40048 ft | 401 kts | 198° |
| 2026-04-26 05:41 | 39.45801 | 140.51553 | 40046 ft | 400 kts | 198° |
| 2026-04-26 05:41 | 39.40270 | 140.50725 | 40046 ft | 400 kts | 198° |
| 2026-04-26 05:42 | 39.34741 | 140.49900 | 40046 ft | 399 kts | 198° |
| 2026-04-26 05:42 | 39.29228 | 140.49077 | 40040 ft | 399 kts | 198° |
| 2026-04-26 05:43 | 39.23716 | 140.48257 | 40041 ft | 398 kts | 198° |
| 2026-04-26 05:43 | 39.18207 | 140.47438 | 40055 ft | 398 kts | 198° |
| 2026-04-26 05:44 | 39.12743 | 140.46626 | 40057 ft | 397 kts | 198° |
| 2026-04-26 05:44 | 39.07239 | 140.45810 | 40051 ft | 398 kts | 198° |
| 2026-04-26 05:45 | 39.01736 | 140.44996 | 40054 ft | 397 kts | 199° |
| 2026-04-26 05:45 | 38.96248 | 140.44186 | 40062 ft | 396 kts | 199° |
| 2026-04-26 05:46 | 38.90799 | 140.43380 | 40058 ft | 396 kts | 199° |
| 2026-04-26 05:46 | 38.85312 | 140.42573 | 40056 ft | 396 kts | 199° |
| 2026-04-26 05:47 | 38.79825 | 140.41769 | 40051 ft | 397 kts | 199° |
| 2026-04-26 05:47 | 38.74371 | 140.40970 | 40040 ft | 395 kts | 199° |
| 2026-04-26 05:48 | 38.68927 | 140.40178 | 40039 ft | 391 kts | 199° |
| 2026-04-26 05:48 | 38.63560 | 140.39395 | 40029 ft | 389 kts | 199° |
| 2026-04-26 05:49 | 38.55532 | 140.38222 | 40023 ft | 386 kts | 200° |
| 2026-04-26 05:50 | 38.50202 | 140.37443 | 40023 ft | 385 kts | 200° |
| 2026-04-26 05:50 | 38.44873 | 140.36667 | 40018 ft | 386 kts | 200° |
| 2026-04-26 05:51 | 38.39421 | 140.36365 | 40020 ft | 406 kts | 189° |
| 2026-04-26 05:51 | 38.36580 | 140.36865 | 40008 ft | 420 kts | 182° |
| 2026-04-26 05:51 | 38.33712 | 140.37914 | 40033 ft | 433 kts | 176° |
| 2026-04-26 05:52 | 38.28018 | 140.40458 | 40027 ft | 437 kts | 176° |
| 2026-04-26 05:52 | 38.22273 | 140.43010 | 40031 ft | 437 kts | 176° |
| 2026-04-26 05:53 | 38.16520 | 140.45495 | 40032 ft | 436 kts | 176° |
| 2026-04-26 05:53 | 38.10757 | 140.47990 | 40044 ft | 436 kts | 177° |
| 2026-04-26 05:54 | 38.05002 | 140.50484 | 40052 ft | 437 kts | 177° |
| 2026-04-26 05:54 | 37.99291 | 140.52955 | 40064 ft | 435 kts | 177° |
| 2026-04-26 05:55 | 37.93568 | 140.55427 | 40058 ft | 433 kts | 177° |
| 2026-04-26 05:55 | 37.87866 | 140.57885 | 40058 ft | 431 kts | 178° |
| 2026-04-26 05:56 | 37.82186 | 140.60329 | 40060 ft | 430 kts | 178° |
| 2026-04-26 05:56 | 37.76535 | 140.62403 | 40066 ft | 404 kts | 189° |
| 2026-04-26 05:56 | 37.73796 | 140.62644 | 40076 ft | 387 kts | 197° |
| 2026-04-26 05:57 | 37.71189 | 140.62456 | 40071 ft | 373 kts | 203° |
| 2026-04-26 05:57 | 37.66212 | 140.61086 | 40071 ft | 365 kts | 207° |
| 2026-04-26 05:58 | 37.61241 | 140.59622 | 40074 ft | 367 kts | 207° |
| 2026-04-26 05:58 | 37.56248 | 140.58173 | 40060 ft | 370 kts | 207° |
| 2026-04-26 05:59 | 37.51253 | 140.56740 | 40077 ft | 371 kts | 207° |
| 2026-04-26 05:59 | 37.46210 | 140.55300 | 40078 ft | 372 kts | 207° |
| 2026-04-26 06:00 | 37.41164 | 140.53861 | 40091 ft | 372 kts | 207° |
| 2026-04-26 06:00 | 37.36115 | 140.52422 | 40091 ft | 372 kts | 207° |
| 2026-04-26 06:01 | 37.31058 | 140.50981 | 40095 ft | 372 kts | 207° |
| 2026-04-26 06:01 | 37.26000 | 140.49544 | 40076 ft | 372 kts | 207° |
| 2026-04-26 06:02 | 37.20994 | 140.48108 | 40102 ft | 369 kts | 207° |
| 2026-04-26 06:02 | 37.15986 | 140.46671 | 40109 ft | 369 kts | 207° |
| 2026-04-26 06:03 | 37.10970 | 140.45253 | 40103 ft | 369 kts | 207° |
| 2026-04-26 06:03 | 37.05938 | 140.43827 | 39577 ft | 378 kts | 207° |
| 2026-04-26 06:03 | 37.03376 | 140.43104 | 38972 ft | 379 kts | 208° |
| 2026-04-26 06:04 | 37.00810 | 140.42384 | 38301 ft | 377 kts | 208° |
| 2026-04-26 06:04 | 36.98244 | 140.41663 | 37589 ft | 376 kts | 208° |
| 2026-04-26 06:04 | 36.95693 | 140.40946 | 36914 ft | 375 kts | 207° |
| 2026-04-26 06:04 | 36.93151 | 140.40231 | 36212 ft | 374 kts | 207° |
| 2026-04-26 06:05 | 36.90626 | 140.39524 | 35575 ft | 372 kts | 207° |
| 2026-04-26 06:05 | 36.88102 | 140.38822 | 35081 ft | 367 kts | 207° |
| 2026-04-26 06:05 | 36.85615 | 140.38131 | 34515 ft | 364 kts | 207° |
| 2026-04-26 06:05 | 36.83186 | 140.37454 | 33987 ft | 361 kts | 206° |
| 2026-04-26 06:06 | 36.80748 | 140.36774 | 33385 ft | 357 kts | 206° |
| 2026-04-26 06:06 | 36.78330 | 140.36101 | 32879 ft | 353 kts | 207° |
| 2026-04-26 06:06 | 36.75940 | 140.35436 | 32322 ft | 350 kts | 207° |
| 2026-04-26 06:06 | 36.73564 | 140.34804 | 31773 ft | 351 kts | 205° |
| 2026-04-26 06:07 | 36.71128 | 140.34283 | 31121 ft | 356 kts | 204° |
| 2026-04-26 06:07 | 36.68680 | 140.33810 | 30565 ft | 356 kts | 204° |
| 2026-04-26 06:07 | 36.66241 | 140.33333 | 30053 ft | 353 kts | 204° |
| 2026-04-26 06:07 | 36.63825 | 140.32852 | 29453 ft | 350 kts | 204° |
| 2026-04-26 06:08 | 36.61419 | 140.32365 | 28603 ft | 354 kts | 203° |
| 2026-04-26 06:08 | 36.58985 | 140.31870 | 27999 ft | 353 kts | 202° |
| 2026-04-26 06:08 | 36.56563 | 140.31383 | 27409 ft | 352 kts | 202° |
| 2026-04-26 06:08 | 36.54149 | 140.30900 | 26875 ft | 350 kts | 201° |
| 2026-04-26 06:09 | 36.52561 | 140.30582 | 26520 ft | 348 kts | 201° |
| 2026-04-26 06:09 | 36.49363 | 140.29940 | 25847 ft | 346 kts | 200° |
| 2026-04-26 06:09 | 36.47788 | 140.29623 | 25510 ft | 346 kts | 200° |
| 2026-04-26 06:09 | 36.44675 | 140.28914 | 24829 ft | 337 kts | 207° |
| 2026-04-26 06:10 | 36.42663 | 140.27622 | 24359 ft | 319 kts | 224° |
| 2026-04-26 06:10 | 36.41079 | 140.25732 | 23709 ft | 316 kts | 235° |
| 2026-04-26 06:10 | 36.40207 | 140.24212 | 22993 ft | 322 kts | 243° |
| 2026-04-26 06:10 | 36.39354 | 140.21687 | 22287 ft | 322 kts | 254° |
| 2026-04-26 06:11 | 36.38794 | 140.18989 | 21701 ft | 321 kts | 257° |
| 2026-04-26 06:11 | 36.38312 | 140.16290 | 21165 ft | 320 kts | 257° |
| 2026-04-26 06:11 | 36.37823 | 140.13602 | 20652 ft | 318 kts | 257° |
| 2026-04-26 06:11 | 36.37151 | 140.10084 | 19986 ft | 315 kts | 256° |
| 2026-04-26 06:12 | 36.36802 | 140.08299 | 19646 ft | 314 kts | 256° |
| 2026-04-26 06:12 | 36.36269 | 140.05669 | 19145 ft | 313 kts | 252° |
| 2026-04-26 06:12 | 36.35264 | 140.03320 | 18647 ft | 314 kts | 233° |
| 2026-04-26 06:12 | 36.33667 | 140.01460 | 18124 ft | 318 kts | 218° |
| 2026-04-26 06:13 | 36.31705 | 140.00175 | 17581 ft | 322 kts | 203° |
| 2026-04-26 06:13 | 36.29476 | 139.99656 | 17066 ft | 327 kts | 190° |
| 2026-04-26 06:13 | 36.27199 | 139.99473 | 16545 ft | 327 kts | 187° |
| 2026-04-26 06:13 | 36.24926 | 139.99362 | 16036 ft | 327 kts | 187° |
| 2026-04-26 06:14 | 36.22678 | 139.99256 | 15533 ft | 326 kts | 187° |
| 2026-04-26 06:14 | 36.20420 | 139.99135 | 15034 ft | 325 kts | 187° |
| 2026-04-26 06:14 | 36.18165 | 139.99002 | 14535 ft | 324 kts | 187° |
| 2026-04-26 06:14 | 36.15916 | 139.98860 | 14025 ft | 324 kts | 187° |
| 2026-04-26 06:15 | 36.13665 | 139.98713 | 13459 ft | 324 kts | 187° |
| 2026-04-26 06:15 | 36.11411 | 139.98564 | 12924 ft | 323 kts | 186° |
| 2026-04-26 06:15 | 36.09164 | 139.98415 | 12314 ft | 325 kts | 186° |
| 2026-04-26 06:15 | 36.06905 | 139.98339 | 11766 ft | 326 kts | 179° |
| 2026-04-26 06:16 | 36.04702 | 139.99006 | 11295 ft | 327 kts | 164° |
| 2026-04-26 06:16 | 36.02562 | 139.99975 | 10804 ft | 325 kts | 163° |
| 2026-04-26 06:16 | 36.00479 | 140.00953 | 10328 ft | 323 kts | 162° |
| 2026-04-26 06:16 | 35.98419 | 140.01918 | 10188 ft | 309 kts | 163° |
| 2026-04-26 06:17 | 35.96448 | 140.02832 | 10034 ft | 297 kts | 163° |
| 2026-04-26 06:17 | 35.94558 | 140.03699 | 9953 ft | 282 kts | 163° |
| 2026-04-26 06:17 | 35.92706 | 140.04539 | 9357 ft | 287 kts | 163° |
| 2026-04-26 06:17 | 35.91164 | 140.05234 | 9032 ft | 285 kts | 163° |
| 2026-04-26 06:18 | 35.89333 | 140.06059 | 8608 ft | 285 kts | 162° |
| 2026-04-26 06:18 | 35.87459 | 140.06623 | 8369 ft | 268 kts | 184° |
| 2026-04-26 06:18 | 35.85761 | 140.06040 | 8238 ft | 245 kts | 211° |
| 2026-04-26 06:18 | 35.84431 | 140.04862 | 8117 ft | 227 kts | 226° |
| 2026-04-26 06:19 | 35.83452 | 140.03457 | 8009 ft | 213 kts | 232° |
| 2026-04-26 06:19 | 35.82543 | 140.02013 | 7574 ft | 215 kts | 232° |
| 2026-04-26 06:19 | 35.81628 | 140.00557 | 7180 ft | 213 kts | 232° |
| 2026-04-26 06:19 | 35.80724 | 139.99127 | 6757 ft | 209 kts | 232° |
| 2026-04-26 06:20 | 35.79832 | 139.97721 | 6310 ft | 207 kts | 232° |
| 2026-04-26 06:20 | 35.78789 | 139.96529 | 5849 ft | 203 kts | 215° |
| 2026-04-26 06:20 | 35.77636 | 139.95551 | 5408 ft | 200 kts | 213° |
| 2026-04-26 06:20 | 35.76482 | 139.94603 | 4945 ft | 198 kts | 213° |
| 2026-04-26 06:21 | 35.75352 | 139.93657 | 4480 ft | 196 kts | 213° |
| 2026-04-26 06:21 | 35.74230 | 139.92710 | 4016 ft | 194 kts | 213° |
| 2026-04-26 06:21 | 35.73125 | 139.91772 | 3559 ft | 193 kts | 212° |
| 2026-04-26 06:21 | 35.72040 | 139.90847 | 3114 ft | 190 kts | 212° |
| 2026-04-26 06:22 | 35.70955 | 139.89919 | 2648 ft | 189 kts | 212° |
| 2026-04-26 06:22 | 35.69880 | 139.89000 | 2180 ft | 187 kts | 212° |
| 2026-04-26 06:22 | 35.68837 | 139.88103 | 1939 ft | 175 kts | 212° |
| 2026-04-26 06:22 | 35.67894 | 139.87291 | 1871 ft | 155 kts | 212° |
| 2026-04-26 06:23 | 35.67025 | 139.86544 | 1898 ft | 154 kts | 212° |
| 2026-04-26 06:23 | 35.66156 | 139.85798 | 1895 ft | 149 kts | 212° |
| 2026-04-26 06:23 | 35.65321 | 139.85081 | 1970 ft | 146 kts | 212° |
| 2026-04-26 06:23 | 35.64498 | 139.84373 | 1898 ft | 140 kts | 212° |
| 2026-04-26 06:24 | 35.63737 | 139.83718 | 1888 ft | 129 kts | 211° |
| 2026-04-26 06:24 | 35.63016 | 139.83098 | 1868 ft | 124 kts | 211° |
| 2026-04-26 06:24 | 35.62302 | 139.82493 | 1837 ft | 129 kts | 210° |
| 2026-04-26 06:24 | 35.61550 | 139.81860 | 1578 ft | 131 kts | 211° |
| 2026-04-26 06:25 | 35.60809 | 139.81214 | 1326 ft | 129 kts | 212° |
| 2026-04-26 06:25 | 35.60084 | 139.80566 | 1032 ft | 129 kts | 212° |
| 2026-04-26 06:25 | 35.59350 | 139.79936 | 688 ft | 128 kts | 212° |
| 2026-04-26 06:25 | 35.58609 | 139.79341 | 434 ft | 125 kts | 213° |
| 2026-04-26 06:26 | 35.57882 | 139.78688 | 314 ft | 134 kts | 215° |
| 2026-04-26 06:26 | 35.57116 | 139.78016 | 164 ft | 135 kts | 214° |
| 2026-04-26 06:26 | 35.56354 | 139.77363 | 44 ft | 128 kts | 214° |
| 2026-04-26 06:26 | 35.55723 | 139.76832 | 26 ft | 88 kts | 214° |
| 2026-04-26 06:27 | 35.55408 | 139.76563 | 24 ft | 39 kts | 212° |
| 2026-04-26 06:27 | 35.55194 | 139.76461 | 29 ft | 28 kts | 189° |
| 2026-04-26 06:27 | 35.55102 | 139.76457 | 25 ft | 11 kts | 163° |
| 2026-04-26 06:27 | 35.55075 | 139.76536 | 24 ft | 11 kts | 73° |
| 2026-04-26 06:28 | 35.55109 | 139.76619 | 25 ft | 11 kts | 60° |
| 2026-04-26 06:28 | 35.55145 | 139.76697 | 27 ft | 10 kts | 60° |
| 2026-04-26 06:28 | 35.55181 | 139.76773 | 25 ft | 10 kts | 60° |
| 2026-04-26 06:28 | 35.55216 | 139.76848 | 23 ft | 10 kts | 60° |
| 2026-04-26 06:29 | 35.55254 | 139.76929 | 20 ft | 11 kts | 60° |
| 2026-04-26 06:29 | 35.55292 | 139.77010 | 21 ft | 11 kts | 60° |
| 2026-04-26 06:29 | 35.55344 | 139.77084 | 20 ft | 13 kts | 22° |
| 2026-04-26 06:29 | 35.55431 | 139.77057 | 22 ft | 14 kts | 331° |
| 2026-04-26 06:30 | 35.55520 | 139.77060 | 21 ft | 15 kts | 46° |
| 2026-04-26 06:30 | 35.55601 | 139.77134 | 25 ft | 14 kts | 35° |
| 2026-04-26 06:30 | 35.55685 | 139.77206 | 22 ft | 16 kts | 34° |
| 2026-04-26 06:30 | 35.55792 | 139.77295 | 21 ft | 20 kts | 34° |
| 2026-04-26 06:31 | 35.55887 | 139.77427 | 22 ft | 22 kts | 61° |
| 2026-04-26 06:31 | 35.55970 | 139.77602 | 25 ft | 25 kts | 59° |
| 2026-04-26 06:31 | 35.56062 | 139.77792 | 23 ft | 26 kts | 61° |
| 2026-04-26 06:31 | 35.56149 | 139.77980 | 25 ft | 24 kts | 60° |
| 2026-04-26 06:32 | 35.56230 | 139.78151 | 24 ft | 23 kts | 59° |
| 2026-04-26 06:32 | 35.56222 | 139.78294 | 24 ft | 19 kts | 150° |
| 2026-04-26 06:32 | 35.56111 | 139.78374 | 27 ft | 18 kts | 149° |
| 2026-04-26 06:32 | 35.56002 | 139.78450 | 22 ft | 18 kts | 150° |
| 2026-04-26 06:33 | 35.55898 | 139.78524 | 21 ft | 17 kts | 149° |
| 2026-04-26 06:33 | 35.55798 | 139.78596 | 22 ft | 16 kts | 153° |
| 2026-04-26 06:33 | 35.55699 | 139.78665 | 25 ft | 17 kts | 150° |
| 2026-04-26 06:33 | 35.55615 | 139.78710 | 30 ft | 11 kts | 163° |
| 2026-04-26 06:34 | 35.55549 | 139.78739 | 26 ft | 7 kts | 160° |
| 2026-04-26 06:34 | 35.55538 | 139.78744 | 27 ft | 0 kts | 159° |